Paducah, KY (42003)

4:06 AM CDT on March 31, 2015 (GMT -0500)
Reidland | | Change Station
CLOSE
Current Station
Personal Weather Station
Location: Paducah, KY
Elevation: 330 ft
Nearby Weather Stations
Active Advisory: Flood Warning

Elev 330 ft 37.01 °N, 88.51 °W | Updated 2 minutes ago

Clear
Clear
--
Feels Like --
N
-
Wind Variable Wind from North

Today
High -- | Low -- °F
--% Chance of Precip.
Yesterday
High -- | Low -- °F
Precip. -- in
6:41 AM 7:15 PM
Waxing Gibbous, 85% visible
Pressure 29.95 in
Visibility 10.0 miles
Clouds Clear
Dew Point Not available.
Humidity Not available.
Rainfall 0.00 in
Snow Depth Not available.
UV 0 out of 12
Pollen 11.80 out of 12
Air Quality Not available.
Flu Activity Not available.
METAR KPAH 310853Z AUTO 22005KT 10SM CLR 11/01 A2995 RMK AO2 SLP140 T01110006 58024

More Conditions Fewer Conditions

Pressure 29.95 in
Visibility 10.0 miles
Clouds Clear
Dew Point Not available.
Humidity Not available.
Rainfall 0.00 in
Snow Depth Not available.
UV 0 out of 12
Pollen 11.80 out of 12
Air Quality Not available.
Flu Activity Not available.
METAR KPAH 310853Z AUTO 22005KT 10SM CLR 11/01 A2995 RMK AO2 SLP140 T01110006 58024

More Conditions Fewer Conditions

10-Day Weather Forecast

Almanac

Astronomy

Mar. 31, 2015 Rise Set
Actual Time
Civil Twilight
Nautical Twilight
Astronomical Twilight
Moon
Length of Visible Light
Length of Day
Tomorrow will be .
, % of the Moon is Illuminated

Today's Extremes

State Highs State Lows

Community

WunderPhotos

Upload Photos

1,809,732 photos uploaded!

WunderBlogs® & News

Nearby

Air Quality

  Air Quality AQ Index Pollutant
Not available.

Snow Depth

Station Depth Elevation

Earthquake Activity

City Distance Mag. Time & Date
Minimum magnitude displayed is 2.5.

Coastal Water Temperatures

Place Temperature

Stations

Nearby Weather Stations

Station Location Temp. Windchill Dew Point Humidity Wind Precip. Elev Updated Type
                   
Flood Warning
Statement as of 10:15 PM CDT on March 30, 2015

The Flood Warning continues for the Ohio River at the Grand Chain dam.
* Until Tuesday morning.
* At 7 PM Monday the stage was 42.7 feet.
* Flood stage is 42.0 feet.
* Minor flooding is occurring and minor flooding is forecast.
* Forecast... the river will fall to below flood stage
by midday Tuesday.
* Impact... at 42.0 feet... this will cause minor flooding of mainly low
lying areas.


Lat... Lon 3727 8908 3717 8916 3709 8907 3714 8888
      3727 8884